sensor_id;sensor_type;location;lat;lon;timestamp;pressure;altitude;pressure_sealevel;temperature
49785;BMP280;35679;38.732;-121.358;2022-08-03T00:01:19;100766.16;;;29.48
49785;BMP280;35679;38.732;-121.358;2022-08-03T00:04:10;100767.50;;;29.51
49785;BMP280;35679;38.732;-121.358;2022-08-03T00:07:01;100766.09;;;29.53
49785;BMP280;35679;38.732;-121.358;2022-08-03T00:09:50;100763.63;;;29.57
49785;BMP280;35679;38.732;-121.358;2022-08-03T00:12:40;100766.06;;;29.58
49785;BMP280;35679;38.732;-121.358;2022-08-03T00:15:30;100760.84;;;29.62
49785;BMP280;35679;38.732;-121.358;2022-08-03T00:18:19;100759.44;;;29.64
49785;BMP280;35679;38.732;-121.358;2022-08-03T00:21:08;100757.25;;;29.66
49785;BMP280;35679;38.732;-121.358;2022-08-03T00:23:59;100747.19;;;29.67
49785;BMP280;35679;38.732;-121.358;2022-08-03T00:26:49;100744.69;;;29.70
49785;BMP280;35679;38.732;-121.358;2022-08-03T00:29:38;100752.28;;;29.73
49785;BMP280;35679;38.732;-121.358;2022-08-03T00:32:48;100740.28;;;29.74
49785;BMP280;35679;38.732;-121.358;2022-08-03T00:35:38;100737.78;;;29.78
49785;BMP280;35679;38.732;-121.358;2022-08-03T00:38:37;100738.03;;;29.81
49785;BMP280;35679;38.732;-121.358;2022-08-03T00:41:27;100737.72;;;29.83
49785;BMP280;35679;38.732;-121.358;2022-08-03T00:44:17;100737.16;;;29.86
49785;BMP280;35679;38.732;-121.358;2022-08-03T00:47:06;100723.25;;;29.87
49785;BMP280;35679;38.732;-121.358;2022-08-03T00:49:58;100729.25;;;29.89
49785;BMP280;35679;38.732;-121.358;2022-08-03T00:52:49;100730.59;;;29.91
49785;BMP280;35679;38.732;-121.358;2022-08-03T00:55:40;100733.00;;;29.93
49785;BMP280;35679;38.732;-121.358;2022-08-03T00:58:30;100730.78;;;29.95
49785;BMP280;35679;38.732;-121.358;2022-08-03T01:01:20;100729.69;;;29.96
49785;BMP280;35679;38.732;-121.358;2022-08-03T01:04:09;100728.59;;;29.97
49785;BMP280;35679;38.732;-121.358;2022-08-03T01:07:26;100738.06;;;29.99
49785;BMP280;35679;38.732;-121.358;2022-08-03T01:13:40;100726.09;;;30.00
49785;BMP280;35679;38.732;-121.358;2022-08-03T01:17:04;100729.03;;;30.04
49785;BMP280;35679;38.732;-121.358;2022-08-03T01:20:01;100728.75;;;30.05
49785;BMP280;35679;38.732;-121.358;2022-08-03T01:31:55;100734.09;;;30.10
49785;BMP280;35679;38.732;-121.358;2022-08-03T01:35:16;100735.72;;;30.11
49785;BMP280;35679;38.732;-121.358;2022-08-03T01:38:14;100728.38;;;30.12
49785;BMP280;35679;38.732;-121.358;2022-08-03T01:41:24;100725.34;;;30.13
49785;BMP280;35679;38.732;-121.358;2022-08-03T01:44:14;100726.66;;;30.16
49785;BMP280;35679;38.732;-121.358;2022-08-03T01:47:19;100729.13;;;30.17
49785;BMP280;35679;38.732;-121.358;2022-08-03T01:50:10;100729.91;;;30.18
49785;BMP280;35679;38.732;-121.358;2022-08-03T01:53:00;100728.00;;;30.18
49785;BMP280;35679;38.732;-121.358;2022-08-03T01:55:54;100733.16;;;30.20
49785;BMP280;35679;38.732;-121.358;2022-08-03T01:58:45;100729.31;;;30.21
49785;BMP280;35679;38.732;-121.358;2022-08-03T02:01:37;100733.66;;;30.22
49785;BMP280;35679;38.732;-121.358;2022-08-03T02:04:49;100729.03;;;30.22
49785;BMP280;35679;38.732;-121.358;2022-08-03T02:07:40;100740.44;;;30.24
49785;BMP280;35679;38.732;-121.358;2022-08-03T02:10:31;100734.97;;;30.24
49785;BMP280;35679;38.732;-121.358;2022-08-03T02:13:24;100729.84;;;30.23
49785;BMP280;35679;38.732;-121.358;2022-08-03T02:16:13;100735.28;;;30.23
49785;BMP280;35679;38.732;-121.358;2022-08-03T02:19:06;100738.00;;;30.23
49785;BMP280;35679;38.732;-121.358;2022-08-03T02:21:57;100743.97;;;30.25
49785;BMP280;35679;38.732;-121.358;2022-08-03T02:24:48;100730.13;;;30.21
49785;BMP280;35679;38.732;-121.358;2022-08-03T02:27:42;100733.34;;;30.23
49785;BMP280;35679;38.732;-121.358;2022-08-03T02:30:37;100731.75;;;30.22
49785;BMP280;35679;38.732;-121.358;2022-08-03T02:33:30;100734.47;;;30.22
49785;BMP280;35679;38.732;-121.358;2022-08-03T02:36:24;100734.47;;;30.22
49785;BMP280;35679;38.732;-121.358;2022-08-03T02:39:20;100733.34;;;30.23
49785;BMP280;35679;38.732;-121.358;2022-08-03T02:42:13;100735.59;;;30.21
49785;BMP280;35679;38.732;-121.358;2022-08-03T02:45:06;100734.47;;;30.22
49785;BMP280;35679;38.732;-121.358;2022-08-03T02:48:03;100724.69;;;30.21
49785;BMP280;35679;38.732;-121.358;2022-08-03T02:50:55;100739.09;;;30.22
49785;BMP280;35679;38.732;-121.358;2022-08-03T02:53:47;100741.81;;;30.22
49785;BMP280;35679;38.732;-121.358;2022-08-03T02:56:37;100739.94;;;30.22
49785;BMP280;35679;38.732;-121.358;2022-08-03T02:59:28;100737.47;;;30.21
49785;BMP280;35679;38.732;-121.358;2022-08-03T03:02:19;100743.75;;;30.21
49785;BMP280;35679;38.732;-121.358;2022-08-03T03:05:09;100746.78;;;30.20
49785;BMP280;35679;38.732;-121.358;2022-08-03T03:08:20;100754.63;;;30.21
49785;BMP280;35679;38.732;-121.358;2022-08-03T03:11:14;100754.94;;;30.20
49785;BMP280;35679;38.732;-121.358;2022-08-03T03:14:06;100752.22;;;30.20
49785;BMP280;35679;38.732;-121.358;2022-08-03T03:16:57;100754.09;;;30.19
49785;BMP280;35679;38.732;-121.358;2022-08-03T03:19:48;100763.69;;;30.17
49785;BMP280;35679;38.732;-121.358;2022-08-03T03:22:38;100764.50;;;30.17
49785;BMP280;35679;38.732;-121.358;2022-08-03T03:25:32;100766.41;;;30.17
49785;BMP280;35679;38.732;-121.358;2022-08-03T03:28:23;100767.50;;;30.16
49785;BMP280;35679;38.732;-121.358;2022-08-03T03:31:13;100775.16;;;30.14
49785;BMP280;35679;38.732;-121.358;2022-08-03T03:34:02;100771.34;;;30.15
49785;BMP280;35679;38.732;-121.358;2022-08-03T03:36:53;100775.16;;;30.14
49785;BMP280;35679;38.732;-121.358;2022-08-03T03:39:43;100775.47;;;30.12
49785;BMP280;35679;38.732;-121.358;2022-08-03T03:42:33;100789.34;;;30.11
49785;BMP280;35679;38.732;-121.358;2022-08-03T03:45:24;100778.75;;;30.09
49785;BMP280;35679;38.732;-121.358;2022-08-03T03:48:14;100781.78;;;30.08
49785;BMP280;35679;38.732;-121.358;2022-08-03T03:51:04;100785.59;;;30.07
49785;BMP280;35679;38.732;-121.358;2022-08-03T03:53:58;100795.16;;;30.04
49785;BMP280;35679;38.732;-121.358;2022-08-03T03:56:48;100797.06;;;30.04
49785;BMP280;35679;38.732;-121.358;2022-08-03T03:59:38;100792.19;;;30.01
49785;BMP280;35679;38.732;-121.358;2022-08-03T04:02:28;100798.75;;;30.00
49785;BMP280;35679;38.732;-121.358;2022-08-03T04:05:17;100801.47;;;30.00
49785;BMP280;35679;38.732;-121.358;2022-08-03T04:08:31;100812.94;;;29.97
49785;BMP280;35679;38.732;-121.358;2022-08-03T04:11:45;100814.88;;;29.96
49785;BMP280;35679;38.732;-121.358;2022-08-03T04:14:37;100808.59;;;29.96
49785;BMP280;35679;38.732;-121.358;2022-08-03T04:17:29;100819.78;;;29.94
49785;BMP280;35679;38.732;-121.358;2022-08-03T04:20:20;100823.88;;;29.92
49785;BMP280;35679;38.732;-121.358;2022-08-03T04:23:12;100829.09;;;29.88
49785;BMP280;35679;38.732;-121.358;2022-08-03T04:26:04;100831.03;;;29.88
49785;BMP280;35679;38.732;-121.358;2022-08-03T04:28:57;100832.09;;;29.87
49785;BMP280;35679;38.732;-121.358;2022-08-03T04:31:49;100837.00;;;29.85
49785;BMP280;35679;38.732;-121.358;2022-08-03T04:34:39;100840.84;;;29.84
49785;BMP280;35679;38.732;-121.358;2022-08-03T04:37:39;100838.38;;;29.83
49785;BMP280;35679;38.732;-121.358;2022-08-03T04:40:33;100849.56;;;29.81
49785;BMP280;35679;38.732;-121.358;2022-08-03T04:43:24;100854.47;;;29.79
49785;BMP280;35679;38.732;-121.358;2022-08-03T04:46:16;100856.69;;;29.77
49785;BMP280;35679;38.732;-121.358;2022-08-03T04:49:07;100864.31;;;29.75
49785;BMP280;35679;38.732;-121.358;2022-08-03T04:51:58;100861.09;;;29.73
49785;BMP280;35679;38.732;-121.358;2022-08-03T04:54:48;100872.81;;;29.69
49785;BMP280;35679;38.732;-121.358;2022-08-03T04:57:38;100872.03;;;29.68
49785;BMP280;35679;38.732;-121.358;2022-08-03T05:00:28;100879.38;;;29.68
49785;BMP280;35679;38.732;-121.358;2022-08-03T05:03:17;100881.59;;;29.66
49785;BMP280;35679;38.732;-121.358;2022-08-03T05:06:12;100889.19;;;29.64
49785;BMP280;35679;38.732;-121.358;2022-08-03T05:09:03;100885.16;;;29.61
49785;BMP280;35679;38.732;-121.358;2022-08-03T05:11:53;100879.16;;;29.59
49785;BMP280;35679;38.732;-121.358;2022-08-03T05:14:43;100888.16;;;29.60
49785;BMP280;35679;38.732;-121.358;2022-08-03T05:17:32;100890.63;;;29.56
49785;BMP280;35679;38.732;-121.358;2022-08-03T05:20:22;100888.22;;;29.55
49785;BMP280;35679;38.732;-121.358;2022-08-03T05:23:12;100895.53;;;29.54
49785;BMP280;35679;38.732;-121.358;2022-08-03T05:26:01;100892.31;;;29.52
49785;BMP280;35679;38.732;-121.358;2022-08-03T05:28:51;100893.69;;;29.50
49785;BMP280;35679;38.732;-121.358;2022-08-03T05:31:40;100891.25;;;29.48
49785;BMP280;35679;38.732;-121.358;2022-08-03T05:34:30;100891.84;;;29.45
49785;BMP280;35679;38.732;-121.358;2022-08-03T05:37:20;100889.41;;;29.44
49785;BMP280;35679;38.732;-121.358;2022-08-03T05:40:10;100897.84;;;29.42
49785;BMP280;35679;38.732;-121.358;2022-08-03T05:43:00;100894.59;;;29.40
49785;BMP280;35679;38.732;-121.358;2022-08-03T05:45:50;100895.69;;;29.39
49785;BMP280;35679;38.732;-121.358;2022-08-03T05:48:59;100890.84;;;29.36
49785;BMP280;35679;38.732;-121.358;2022-08-03T05:51:48;100885.94;;;29.33
49785;BMP280;35679;38.732;-121.358;2022-08-03T05:54:59;100879.72;;;29.33
49785;BMP280;35679;38.732;-121.358;2022-08-03T05:57:49;100890.84;;;29.31
49785;BMP280;35679;38.732;-121.358;2022-08-03T06:00:43;100885.97;;;29.28
49785;BMP280;35679;38.732;-121.358;2022-08-03T06:03:32;100887.34;;;29.26
49785;BMP280;35679;38.732;-121.358;2022-08-03T06:06:21;100887.63;;;29.24
49785;BMP280;35679;38.732;-121.358;2022-08-03T06:09:13;100891.75;;;29.22
49785;BMP280;35679;38.732;-121.358;2022-08-03T06:12:03;100884.97;;;29.19
49785;BMP280;35679;38.732;-121.358;2022-08-03T06:14:53;100886.88;;;29.19
49785;BMP280;35679;38.732;-121.358;2022-08-03T06:17:47;100886.34;;;29.17
49785;BMP280;35679;38.732;-121.358;2022-08-03T06:20:37;100890.44;;;29.15
49785;BMP280;35679;38.732;-121.358;2022-08-03T06:23:26;100884.47;;;29.13
49785;BMP280;35679;38.732;-121.358;2022-08-03T06:26:36;100885.06;;;29.10
49785;BMP280;35679;38.732;-121.358;2022-08-03T06:29:25;100881.78;;;29.08
49785;BMP280;35679;38.732;-121.358;2022-08-03T06:32:15;100877.44;;;29.07
49785;BMP280;35679;38.732;-121.358;2022-08-03T06:35:08;100885.88;;;29.05
49785;BMP280;35679;38.732;-121.358;2022-08-03T06:37:58;100890.03;;;28.98
49785;BMP280;35679;38.732;-121.358;2022-08-03T06:40:48;100887.84;;;29.00
49785;BMP280;35679;38.732;-121.358;2022-08-03T06:43:37;100878.06;;;28.99
49785;BMP280;35679;38.732;-121.358;2022-08-03T06:46:47;100878.66;;;28.96
49785;BMP280;35679;38.732;-121.358;2022-08-03T06:49:36;100870.75;;;28.94
49785;BMP280;35679;38.732;-121.358;2022-08-03T06:52:26;100875.69;;;28.92
49785;BMP280;35679;38.732;-121.358;2022-08-03T06:55:26;100874.84;;;28.92
49785;BMP280;35679;38.732;-121.358;2022-08-03T06:58:15;100872.19;;;28.87
49785;BMP280;35679;38.732;-121.358;2022-08-03T07:01:05;100871.13;;;28.83
49785;BMP280;35679;38.732;-121.358;2022-08-03T07:03:54;100871.13;;;28.83
49785;BMP280;35679;38.732;-121.358;2022-08-03T07:06:44;100870.06;;;28.79
49785;BMP280;35679;38.732;-121.358;2022-08-03T07:09:33;100879.31;;;28.78
49785;BMP280;35679;38.732;-121.358;2022-08-03T07:12:23;100876.88;;;28.76
49785;BMP280;35679;38.732;-121.358;2022-08-03T07:15:12;100883.13;;;28.72
49785;BMP280;35679;38.732;-121.358;2022-08-03T07:18:22;100885.34;;;28.65
49785;BMP280;35679;38.732;-121.358;2022-08-03T07:21:16;100886.94;;;28.66
49785;BMP280;35679;38.732;-121.358;2022-08-03T07:24:07;100890.78;;;28.65
49785;BMP280;35679;38.732;-121.358;2022-08-03T07:26:56;100895.13;;;28.61
49785;BMP280;35679;38.732;-121.358;2022-08-03T07:29:46;100891.63;;;28.60
49785;BMP280;35679;38.732;-121.358;2022-08-03T07:32:35;100904.34;;;28.60
49785;BMP280;35679;38.732;-121.358;2022-08-03T07:35:37;100900.88;;;28.54
49785;BMP280;35679;38.732;-121.358;2022-08-03T07:38:26;100901.97;;;28.53
49785;BMP280;35679;38.732;-121.358;2022-08-03T07:41:18;100910.69;;;28.51
49785;BMP280;35679;38.732;-121.358;2022-08-03T07:44:07;100905.53;;;28.49
49785;BMP280;35679;38.732;-121.358;2022-08-03T07:46:57;100905.53;;;28.49
49785;BMP280;35679;38.732;-121.358;2022-08-03T07:49:50;100908.00;;;28.46
49785;BMP280;35679;38.732;-121.358;2022-08-03T07:52:40;100903.09;;;28.43
49785;BMP280;35679;38.732;-121.358;2022-08-03T07:55:40;100900.13;;;28.39
49785;BMP280;35679;38.732;-121.358;2022-08-03T07:58:30;100902.31;;;28.37
49785;BMP280;35679;38.732;-121.358;2022-08-03T08:01:56;100897.97;;;28.36
49785;BMP280;35679;38.732;-121.358;2022-08-03T08:04:45;100906.69;;;28.33
49785;BMP280;35679;38.732;-121.358;2022-08-03T08:07:34;100915.38;;;28.30
49785;BMP280;35679;38.732;-121.358;2022-08-03T08:10:24;100909.44;;;28.28
49785;BMP280;35679;38.732;-121.358;2022-08-03T08:13:13;100913.22;;;28.27
49785;BMP280;35679;38.732;-121.358;2022-08-03T08:16:03;100899.13;;;28.25
49785;BMP280;35679;38.732;-121.358;2022-08-03T08:18:53;100888.53;;;28.24
49785;BMP280;35679;38.732;-121.358;2022-08-03T08:21:42;100885.28;;;28.22
49785;BMP280;35679;38.732;-121.358;2022-08-03T08:24:48;100888.56;;;28.19
49785;BMP280;35679;38.732;-121.358;2022-08-03T08:27:47;100882.84;;;28.15
49785;BMP280;35679;38.732;-121.358;2022-08-03T08:30:56;100882.31;;;28.13
49785;BMP280;35679;38.732;-121.358;2022-08-03T08:33:46;100874.44;;;28.12
49785;BMP280;35679;38.732;-121.358;2022-08-03T08:36:51;100882.31;;;28.08
49785;BMP280;35679;38.732;-121.358;2022-08-03T08:39:40;100880.72;;;28.07
49785;BMP280;35679;38.732;-121.358;2022-08-03T08:42:30;100884.53;;;28.06
49785;BMP280;35679;38.732;-121.358;2022-08-03T08:45:20;100881.25;;;28.04
49785;BMP280;35679;38.732;-121.358;2022-08-03T08:48:12;100890.75;;;28.02
49785;BMP280;35679;38.732;-121.358;2022-08-03T08:51:02;100887.53;;;28.00
49785;BMP280;35679;38.732;-121.358;2022-08-03T08:53:52;100891.34;;;27.99
49785;BMP280;35679;38.732;-121.358;2022-08-03T08:56:42;100895.69;;;27.95
49785;BMP280;35679;38.732;-121.358;2022-08-03T08:59:33;100895.94;;;27.93
49785;BMP280;35679;38.732;-121.358;2022-08-03T09:02:36;100891.59;;;27.92
49785;BMP280;35679;38.732;-121.358;2022-08-03T09:05:25;100900.03;;;27.91
49785;BMP280;35679;38.732;-121.358;2022-08-03T09:08:35;100888.09;;;27.87
49785;BMP280;35679;38.732;-121.358;2022-08-03T09:11:25;100900.88;;;27.86
49785;BMP280;35679;38.732;-121.358;2022-08-03T09:14:35;100895.69;;;27.85
49785;BMP280;35679;38.732;-121.358;2022-08-03T09:17:45;100900.88;;;27.82
49785;BMP280;35679;38.732;-121.358;2022-08-03T09:20:38;100889.47;;;27.80
49785;BMP280;35679;38.732;-121.358;2022-08-03T09:24:04;100878.09;;;27.78
49785;BMP280;35679;38.732;-121.358;2022-08-03T09:26:57;100876.75;;;27.75
49785;BMP280;35679;38.732;-121.358;2022-08-03T09:29:51;100871.03;;;27.72
49785;BMP280;35679;38.732;-121.358;2022-08-03T09:32:40;100865.09;;;27.70
49785;BMP280;35679;38.732;-121.358;2022-08-03T09:35:38;100866.19;;;27.69
49785;BMP280;35679;38.732;-121.358;2022-08-03T09:39:03;100875.41;;;27.68
49785;BMP280;35679;38.732;-121.358;2022-08-03T09:44:55;100864.56;;;27.63
49785;BMP280;35679;38.732;-121.358;2022-08-03T09:47:45;100865.13;;;27.60
49785;BMP280;35679;38.732;-121.358;2022-08-03T09:50:53;100867.53;;;27.56
49785;BMP280;35679;38.732;-121.358;2022-08-03T09:53:46;100864.03;;;27.56
49785;BMP280;35679;38.732;-121.358;2022-08-03T09:56:46;100865.38;;;27.53
49785;BMP280;35679;38.732;-121.358;2022-08-03T09:59:36;100863.22;;;27.50
49785;BMP280;35679;38.732;-121.358;2022-08-03T10:02:28;100865.38;;;27.48
49785;BMP280;35679;38.732;-121.358;2022-08-03T10:05:30;100867.28;;;27.48
49785;BMP280;35679;38.732;-121.358;2022-08-03T10:08:21;100864.56;;;27.48
49785;BMP280;35679;38.732;-121.358;2022-08-03T10:11:10;100854.81;;;27.47
49785;BMP280;35679;38.732;-121.358;2022-08-03T10:14:07;100860.50;;;27.45
49785;BMP280;35679;38.732;-121.358;2022-08-03T10:16:57;100849.41;;;27.42
49785;BMP280;35679;38.732;-121.358;2022-08-03T10:19:46;100839.13;;;27.39
49785;BMP280;35679;38.732;-121.358;2022-08-03T10:22:38;100834.78;;;27.38
49785;BMP280;35679;38.732;-121.358;2022-08-03T10:25:29;100835.34;;;27.35
49785;BMP280;35679;38.732;-121.358;2022-08-03T10:28:21;100842.63;;;27.34
49785;BMP280;35679;38.732;-121.358;2022-08-03T10:31:12;100843.19;;;27.31
49785;BMP280;35679;38.732;-121.358;2022-08-03T10:34:04;100846.19;;;27.30
49785;BMP280;35679;38.732;-121.358;2022-08-03T10:36:57;100846.97;;;27.30
49785;BMP280;35679;38.732;-121.358;2022-08-03T10:39:46;100847.25;;;27.29
49785;BMP280;35679;38.732;-121.358;2022-08-03T10:42:42;100858.38;;;27.27
49785;BMP280;35679;38.732;-121.358;2022-08-03T10:45:35;100846.44;;;27.23
49785;BMP280;35679;38.732;-121.358;2022-08-03T10:48:29;100847.53;;;27.22
49785;BMP280;35679;38.732;-121.358;2022-08-03T10:51:20;100840.50;;;27.21
49785;BMP280;35679;38.732;-121.358;2022-08-03T10:54:50;100845.09;;;27.16
49785;BMP280;35679;38.732;-121.358;2022-08-03T10:57:57;100849.44;;;27.17
49785;BMP280;35679;38.732;-121.358;2022-08-03T11:00:49;100852.41;;;27.16
49785;BMP280;35679;38.732;-121.358;2022-08-03T11:06:45;100846.44;;;27.14
49785;BMP280;35679;38.732;-121.358;2022-08-03T11:09:41;100840.22;;;27.08
49785;BMP280;35679;38.732;-121.358;2022-08-03T11:12:32;100828.09;;;26.10
49785;BMP280;35679;38.732;-121.358;2022-08-03T11:15:32;100829.84;;;25.38
49785;BMP280;35679;38.732;-121.358;2022-08-03T11:18:22;100828.16;;;25.22
49785;BMP280;35679;38.732;-121.358;2022-08-03T11:21:13;100839.09;;;25.11
49785;BMP280;35679;38.732;-121.358;2022-08-03T11:24:03;100831.97;;;25.00
49785;BMP280;35679;38.732;-121.358;2022-08-03T11:30:07;100835.75;;;24.68
49785;BMP280;35679;38.732;-121.358;2022-08-03T11:32:57;100830.28;;;24.63
49785;BMP280;35679;38.732;-121.358;2022-08-03T11:36:00;100828.03;;;24.50
49785;BMP280;35679;38.732;-121.358;2022-08-03T11:39:11;100821.34;;;24.57
49785;BMP280;35679;38.732;-121.358;2022-08-03T11:45:14;100818.47;;;24.43
49785;BMP280;35679;38.732;-121.358;2022-08-03T11:48:15;100819.13;;;24.28
49785;BMP280;35679;38.732;-121.358;2022-08-03T11:51:06;100811.09;;;24.12
49785;BMP280;35679;38.732;-121.358;2022-08-03T11:54:02;100815.75;;;24.16
49785;BMP280;35679;38.732;-121.358;2022-08-03T11:56:51;100827.09;;;24.18
49785;BMP280;35679;38.732;-121.358;2022-08-03T11:59:41;100826.72;;;24.10
49785;BMP280;35679;38.732;-121.358;2022-08-03T12:02:30;100836.56;;;23.99
49785;BMP280;35679;38.732;-121.358;2022-08-03T12:05:20;100834.44;;;24.01
49785;BMP280;35679;38.732;-121.358;2022-08-03T12:08:11;100827.28;;;23.90
49785;BMP280;35679;38.732;-121.358;2022-08-03T12:11:04;100824.66;;;23.95
49785;BMP280;35679;38.732;-121.358;2022-08-03T12:13:54;100821.97;;;23.95
49785;BMP280;35679;38.732;-121.358;2022-08-03T12:17:03;100824.28;;;23.87
49785;BMP280;35679;38.732;-121.358;2022-08-03T12:19:52;100834.19;;;23.81
49785;BMP280;35679;38.732;-121.358;2022-08-03T12:22:42;100837.28;;;23.90
49785;BMP280;35679;38.732;-121.358;2022-08-03T12:25:32;100840.06;;;23.78
49785;BMP280;35679;38.732;-121.358;2022-08-03T12:28:26;100840.72;;;23.69
49785;BMP280;35679;38.732;-121.358;2022-08-03T12:31:25;100844.75;;;23.67
49785;BMP280;35679;38.732;-121.358;2022-08-03T12:34:14;100844.41;;;23.63
49785;BMP280;35679;38.732;-121.358;2022-08-03T12:37:04;100840.75;;;23.53
49785;BMP280;35679;38.732;-121.358;2022-08-03T12:40:14;100842.56;;;23.47
49785;BMP280;35679;38.732;-121.358;2022-08-03T12:43:13;100837.81;;;23.54
49785;BMP280;35679;38.732;-121.358;2022-08-03T12:46:10;100832.78;;;23.41
49785;BMP280;35679;38.732;-121.358;2022-08-03T12:49:11;100831.78;;;23.47
49785;BMP280;35679;38.732;-121.358;2022-08-03T12:52:03;100834.41;;;23.42
49785;BMP280;35679;38.732;-121.358;2022-08-03T12:54:59;100837.28;;;23.36
49785;BMP280;35679;38.732;-121.358;2022-08-03T12:57:48;100835.66;;;23.35
49785;BMP280;35679;38.732;-121.358;2022-08-03T13:00:38;100839.72;;;23.37
49785;BMP280;35679;38.732;-121.358;2022-08-03T13:03:28;100849.44;;;23.22
49785;BMP280;35679;38.732;-121.358;2022-08-03T13:06:29;100856.13;;;23.19
49785;BMP280;35679;38.732;-121.358;2022-08-03T13:09:19;100852.88;;;23.17
49785;BMP280;35679;38.732;-121.358;2022-08-03T13:12:15;100863.75;;;23.22
49785;BMP280;35679;38.732;-121.358;2022-08-03T13:15:05;100861.50;;;23.19
49785;BMP280;35679;38.732;-121.358;2022-08-03T13:17:56;100860.72;;;23.19
49785;BMP280;35679;38.732;-121.358;2022-08-03T13:20:45;100861.84;;;23.07
49785;BMP280;35679;38.732;-121.358;2022-08-03T13:23:34;100866.91;;;23.19
49785;BMP280;35679;38.732;-121.358;2022-08-03T13:26:24;100877.75;;;23.08
49785;BMP280;35679;38.732;-121.358;2022-08-03T13:29:13;100879.31;;;23.04
49785;BMP280;35679;38.732;-121.358;2022-08-03T13:32:03;100879.78;;;23.01
49785;BMP280;35679;38.732;-121.358;2022-08-03T13:34:52;100884.91;;;23.03
49785;BMP280;35679;38.732;-121.358;2022-08-03T13:37:42;100888.44;;;23.19
49785;BMP280;35679;38.732;-121.358;2022-08-03T13:40:35;100884.91;;;23.03
49785;BMP280;35679;38.732;-121.358;2022-08-03T13:43:28;100888.22;;;22.93
49785;BMP280;35679;38.732;-121.358;2022-08-03T13:46:17;100882.03;;;22.93
49785;BMP280;35679;38.732;-121.358;2022-08-03T13:49:08;100889.38;;;22.97
49785;BMP280;35679;38.732;-121.358;2022-08-03T13:51:57;100881.66;;;23.01
49785;BMP280;35679;38.732;-121.358;2022-08-03T13:54:46;100889.00;;;23.05
49785;BMP280;35679;38.732;-121.358;2022-08-03T13:57:36;100886.81;;;23.02
49785;BMP280;35679;38.732;-121.358;2022-08-03T14:00:45;100889.25;;;23.04
49785;BMP280;35679;38.732;-121.358;2022-08-03T14:03:35;100885.84;;;23.08
49785;BMP280;35679;38.732;-121.358;2022-08-03T14:06:24;100896.94;;;23.12
49785;BMP280;35679;38.732;-121.358;2022-08-03T14:09:14;100893.66;;;23.10
49785;BMP280;35679;38.732;-121.358;2022-08-03T14:12:04;100905.97;;;23.22
49785;BMP280;35679;38.732;-121.358;2022-08-03T14:14:55;100909.63;;;23.16
49785;BMP280;35679;38.732;-121.358;2022-08-03T14:17:48;100908.41;;;23.07
49785;BMP280;35679;38.732;-121.358;2022-08-03T14:20:37;100919.53;;;23.11
49785;BMP280;35679;38.732;-121.358;2022-08-03T14:23:38;100920.91;;;23.13
49785;BMP280;35679;38.732;-121.358;2022-08-03T14:26:28;100924.19;;;23.15
49785;BMP280;35679;38.732;-121.358;2022-08-03T14:29:18;100929.66;;;23.36
49785;BMP280;35679;38.732;-121.358;2022-08-03T14:32:07;100929.06;;;23.83
49785;BMP280;35679;38.732;-121.358;2022-08-03T14:35:00;100928.13;;;23.94
49785;BMP280;35679;38.732;-121.358;2022-08-03T14:37:51;100928.84;;;24.06
49785;BMP280;35679;38.732;-121.358;2022-08-03T14:40:40;100934.63;;;24.15
49785;BMP280;35679;38.732;-121.358;2022-08-03T14:43:29;100942.03;;;24.24
49785;BMP280;35679;38.732;-121.358;2022-08-03T14:46:21;100952.91;;;24.29
49785;BMP280;35679;38.732;-121.358;2022-08-03T14:49:10;100947.56;;;24.34
49785;BMP280;35679;38.732;-121.358;2022-08-03T14:52:19;100942.00;;;24.41
49785;BMP280;35679;38.732;-121.358;2022-08-03T14:55:08;100946.09;;;24.43
49785;BMP280;35679;38.732;-121.358;2022-08-03T14:57:58;100946.41;;;24.47
49785;BMP280;35679;38.732;-121.358;2022-08-03T15:00:51;100941.31;;;24.50
49785;BMP280;35679;38.732;-121.358;2022-08-03T15:03:41;100932.72;;;24.53
49785;BMP280;35679;38.732;-121.358;2022-08-03T15:06:31;100940.28;;;24.56
49785;BMP280;35679;38.732;-121.358;2022-08-03T15:09:21;100930.66;;;24.60
49785;BMP280;35679;38.732;-121.358;2022-08-03T15:12:11;100936.31;;;24.63
49785;BMP280;35679;38.732;-121.358;2022-08-03T15:15:00;100936.38;;;24.68
49785;BMP280;35679;38.732;-121.358;2022-08-03T15:17:49;100945.06;;;24.70
49785;BMP280;35679;38.732;-121.358;2022-08-03T15:20:47;100942.66;;;24.74
49785;BMP280;35679;38.732;-121.358;2022-08-03T15:23:38;100937.84;;;24.76
49785;BMP280;35679;38.732;-121.358;2022-08-03T15:26:28;100951.88;;;24.78
49785;BMP280;35679;38.732;-121.358;2022-08-03T15:29:27;100942.47;;;24.80
49785;BMP280;35679;38.732;-121.358;2022-08-03T15:32:37;100937.38;;;24.84
49785;BMP280;35679;38.732;-121.358;2022-08-03T15:35:26;100946.03;;;24.86
49785;BMP280;35679;38.732;-121.358;2022-08-03T15:38:16;100942.03;;;24.88
49785;BMP280;35679;38.732;-121.358;2022-08-03T15:41:05;100936.38;;;24.90
49785;BMP280;35679;38.732;-121.358;2022-08-03T15:44:01;100926.09;;;24.92
49785;BMP280;35679;38.732;-121.358;2022-08-03T15:46:55;100931.00;;;24.95
49785;BMP280;35679;38.732;-121.358;2022-08-03T15:49:45;100933.19;;;24.98
49785;BMP280;35679;38.732;-121.358;2022-08-03T15:52:34;100923.75;;;25.00
49785;BMP280;35679;38.732;-121.358;2022-08-03T15:55:23;100929.47;;;25.04
49785;BMP280;35679;38.732;-121.358;2022-08-03T15:58:12;100937.56;;;25.04
49785;BMP280;35679;38.732;-121.358;2022-08-03T16:01:23;100928.19;;;25.06
49785;BMP280;35679;38.732;-121.358;2022-08-03T16:04:13;100932.50;;;25.07
49785;BMP280;35679;38.732;-121.358;2022-08-03T16:07:02;100922.03;;;25.11
49785;BMP280;35679;38.732;-121.358;2022-08-03T16:09:52;100930.13;;;25.11